Modesto, California
Current Conditions -  °F | °C
As of 8:53 AM on Saturday 22 Nov 2014 (Local Time) from KMOD Reporting Station
Light Rain Light Rain  
Wind Chill: 55°   Ceiling: 4200
Heat Index: 55°   Visibility: 4mi
Dew Point: 48°   Wind: 10mph
Humidity: 77%   Direction: 140°SE
Pressure: 30.13"   Gusts: NA
Location:  37.64°N, 120.99°W
Report Text: KMOD 221653Z 14009KT 4SM -RA BKN042 OVC049 13/09 A3013 RMK AO2 RAB10E19B45 SLP205 P0000 T01280089
Loading
Personal Weather Stations






























Interactive Weather Map New forecast layout! Learn more

10-Day Weather Forecast

Advertisements
Track Severe Weather on mobile